Airports Norway Florø Airport

Florø Airport (ENFL / FRO)

Facts about Florø Airport

Name Florø Airport
City Floro
Country Norway
ICAO code ENFL
IATA code FRO
Elevation 11.2776 meters (37 feet)

Weather

METAR

Metar data retrieved Saturday, 20 July 2024 at 01:25 UTC (0 minutes ago)

ENFL 200050Z AUTO 17013KT 9999NDV BKN042/// OVC056/// 19/14 Q1014

Live traffic

Navigraph Charts (account required)